Time;durP1;ratioP1;P1;durP2;ratioP2;P2;SDS_P1;SDS_P2;PMS_P1;PMS_P2;Temp;Humidity;BMP_temperature;BMP_pressure;BME280_temperature;BME280_humidity;BME280_pressure;Samples;Min_cycle;Max_cycle;Signal;HPM_P1;HPM_P2
2023/10/11 00:03:05;;;;;;;17.85;12.43;;;359.20;2329.60;;;;;;5054668;28;20542;-75
2023/10/11 00:05:39;;;;;;;19.48;12.52;;;359.30;2329.60;;;;;;5059251;28;20486;-74
2023/10/11 00:08:13;;;;;;;21.05;13.23;;;359.10;2329.60;;;;;;5051484;28;20025;-74
2023/10/11 00:11:18;;;;;;;21.05;14.05;;;384.20;2329.60;;;;;;5055039;28;20052;-74
2023/10/11 00:13:46;;;;;;;19.27;13.75;;;384.30;2329.60;;;;;;5069217;28;20057;-74
2023/10/11 00:16:14;;;;;;;26.52;14.00;;;384.00;2329.60;;;;;;5065682;28;20110;-74
2023/10/11 00:18:41;;;;;;;19.73;13.32;;;384.00;2329.60;;;;;;5054817;28;20490;-75
2023/10/11 00:21:50;;;;;;;23.27;13.43;;;359.30;2329.60;;;;;;5071935;28;20024;-74
2023/10/11 00:23:56;;;;;;;21.23;13.00;;;384.00;2329.60;;;;;;5061854;28;20040;-74
2023/10/11 00:26:22;;;;;;;21.98;15.48;;;384.10;2329.60;;;;;;5059550;28;20032;-74
2023/10/11 00:28:48;;;;;;;24.23;14.75;;;384.00;2329.60;;;;;;5068122;28;20025;-74
2023/10/11 00:31:17;;;;;;;20.42;14.30;;;384.00;2329.60;;;;;;5038007;28;20518;-74
2023/10/11 00:33:43;;;;;;;23.67;14.88;;;384.00;2329.60;;;;;;5057865;28;20479;-74
2023/10/11 00:36:08;;;;;;;21.60;14.45;;;359.30;2329.60;;;;;;5074862;28;20041;-74
2023/10/11 00:38:46;;;;;;;25.65;15.70;;;359.00;2329.60;;;;;;5062427;28;20054;-74
2023/10/11 00:41:12;;;;;;;27.90;15.75;;;359.00;2329.60;;;;;;5070125;28;20032;-74
2023/10/11 00:43:55;;;;;;;21.60;15.50;;;358.90;2329.60;;;;;;5073599;28;20053;-74
2023/10/11 00:46:27;;;;;;;27.92;15.05;;;359.00;2329.60;;;;;;5066383;28;20035;-74
2023/10/11 00:48:55;;;;;;;22.75;14.75;;;359.20;2329.60;;;;;;5067347;28;20037;-74
2023/10/11 00:51:32;;;;;;;21.13;14.00;;;359.30;2329.60;;;;;;5058558;28;20088;-74
2023/10/11 00:54:04;;;;;;;19.65;13.65;;;359.20;2329.60;;;;;;5056934;28;20040;-74
2023/10/11 00:56:34;;;;;;;20.38;13.32;;;359.10;2329.60;;;;;;5054038;28;20111;-74
2023/10/11 00:59:10;;;;;;;22.27;13.65;;;359.00;2329.60;;;;;;5050512;28;20074;-74
2023/10/11 01:01:37;;;;;;;23.13;13.93;;;358.90;2329.60;;;;;;5062592;28;20111;-74
2023/10/11 01:04:04;;;;;;;24.40;13.57;;;358.70;2329.60;;;;;;5063426;28;20034;-74
2023/10/11 01:06:29;;;;;;;26.00;15.10;;;358.60;2329.60;;;;;;5039544;28;20124;-74
2023/10/11 01:08:55;;;;;;;23.35;13.30;;;358.60;2329.60;;;;;;5048045;28;20072;-74
2023/10/11 01:11:26;;;;;;;23.10;13.10;;;358.60;2329.60;;;;;;5047058;28;20033;-74
2023/10/11 01:13:52;;;;;;;26.17;14.93;;;358.50;2329.60;;;;;;5045722;28;20086;-74
2023/10/11 01:16:27;;;;;;;21.58;13.38;;;358.40;2329.60;;;;;;5050062;28;20029;-74
2023/10/11 01:18:53;;;;;;;19.97;12.27;;;358.40;2329.60;;;;;;5053558;28;20032;-74
2023/10/11 01:21:19;;;;;;;20.55;12.38;;;333.70;2329.60;;;;;;5052572;28;20289;-74
2023/10/11 01:23:45;;;;;;;24.05;13.82;;;333.60;2329.60;;;;;;5058450;28;20048;-74
2023/10/11 01:26:11;;;;;;;20.58;12.73;;;333.70;2329.60;;;;;;5055191;28;20040;-74
2023/10/11 01:28:42;;;;;;;24.23;13.50;;;358.40;2329.60;;;;;;5048477;28;20418;-74
2023/10/11 01:31:09;;;;;;;21.85;13.18;;;358.40;2329.60;;;;;;5067495;28;20027;-74
2023/10/11 01:33:43;;;;;;;25.00;15.88;;;358.40;2329.60;;;;;;5058363;28;20037;-75
2023/10/11 01:36:11;;;;;;;25.48;13.23;;;358.40;2329.60;;;;;;5058819;28;20029;-75
2023/10/11 01:38:46;;;;;;;24.55;14.50;;;358.40;2329.60;;;;;;5042702;28;20014;-74
2023/10/11 01:41:40;;;;;;;21.00;14.40;;;333.70;2329.60;;;;;;5036346;28;20116;-74
2023/10/11 01:44:07;;;;;;;25.33;13.93;;;333.60;2329.60;;;;;;5034649;28;20045;-74
2023/10/11 01:46:35;;;;;;;20.92;15.05;;;333.60;2329.60;;;;;;5036099;28;20058;-74
2023/10/11 01:49:01;;;;;;;23.85;14.70;;;358.40;2329.60;;;;;;5035951;28;20075;-74
2023/10/11 01:51:27;;;;;;;27.73;15.35;;;358.50;2329.60;;;;;;5046995;28;20040;-74
2023/10/11 01:53:59;;;;;;;24.80;15.57;;;358.60;2329.60;;;;;;5055160;28;20394;-74
2023/10/11 01:56:26;;;;;;;24.67;15.50;;;358.50;2329.60;;;;;;5055750;28;20109;-74
2023/10/11 01:59:01;;;;;;;21.25;13.55;;;358.40;2329.60;;;;;;5054182;28;20024;-74
2023/10/11 02:01:30;;;;;;;22.23;15.32;;;358.40;2329.60;;;;;;5055555;28;20063;-74
2023/10/11 02:04:00;;;;;;;22.48;14.32;;;358.40;2329.60;;;;;;5055451;28;20471;-74
2023/10/11 02:06:31;;;;;;;21.77;13.65;;;358.40;2329.60;;;;;;5055222;28;20110;-75
2023/10/11 02:08:58;;;;;;;20.88;14.32;;;358.50;2329.60;;;;;;5055538;28;20486;-74
2023/10/11 02:11:25;;;;;;;20.42;13.55;;;358.60;2329.60;;;;;;5055147;28;20356;-74
2023/10/11 02:13:52;;;;;;;22.42;13.88;;;358.50;2329.60;;;;;;5055120;28;20033;-74
2023/10/11 02:16:18;;;;;;;23.90;14.75;;;358.50;2329.60;;;;;;5055189;28;20442;-74
2023/10/11 02:18:51;;;;;;;21.70;14.10;;;333.70;2329.60;;;;;;5055361;28;20463;-74
2023/10/11 02:21:17;;;;;;;22.75;12.95;;;333.60;2329.60;;;;;;5054987;28;20447;-74
2023/10/11 02:23:44;;;;;;;25.23;13.13;;;333.60;2329.60;;;;;;5055156;28;20039;-74
2023/10/11 02:26:13;;;;;;;17.55;12.90;;;333.60;2329.60;;;;;;5054634;28;20470;-74
2023/10/11 02:28:42;;;;;;;17.40;11.20;;;333.50;2329.60;;;;;;5054940;28;20028;-74
2023/10/11 02:31:13;;;;;;;18.33;10.70;;;333.40;2329.60;;;;;;5055039;28;20036;-74
2023/10/11 02:33:39;;;;;;;16.67;11.70;;;333.30;2329.60;;;;;;5054527;28;20468;-74
2023/10/11 02:36:09;;;;;;;19.65;11.35;;;333.30;2329.60;;;;;;5053626;28;20056;-74
2023/10/11 02:38:47;;;;;;;17.90;12.13;;;333.40;2329.60;;;;;;5053644;28;20056;-74
2023/10/11 02:41:26;;;;;;;17.58;11.45;;;333.40;2329.60;;;;;;5053703;28;20029;-74
2023/10/11 02:43:52;;;;;;;15.55;11.48;;;333.40;2329.60;;;;;;5054235;28;20051;-74
2023/10/11 02:46:23;;;;;;;17.63;12.63;;;333.40;2329.60;;;;;;5054606;28;20115;-74
2023/10/11 02:49:38;;;;;;;22.42;13.82;;;333.50;2329.60;;;;;;5053329;28;20104;-74
2023/10/11 02:51:51;;;;;;;22.02;13.48;;;333.50;2329.60;;;;;;5054089;28;20028;-74
2023/10/11 02:54:17;;;;;;;17.23;11.70;;;333.60;2329.60;;;;;;5054502;28;20442;-74
2023/10/11 02:56:48;;;;;;;23.42;13.50;;;333.60;2329.60;;;;;;5054971;28;20052;-74
2023/10/11 02:59:19;;;;;;;20.20;13.13;;;333.60;2329.60;;;;;;5053039;28;20029;-74
2023/10/11 03:01:59;;;;;;;22.73;13.93;;;333.60;2329.60;;;;;;5054296;28;20076;-74
2023/10/11 03:04:29;;;;;;;25.75;15.27;;;333.60;2329.60;;;;;;5054488;28;20021;-74
2023/10/11 03:06:54;;;;;;;19.48;12.73;;;333.60;2329.60;;;;;;5054157;28;20021;-74
2023/10/11 03:09:20;;;;;;;25.05;13.65;;;333.60;2329.60;;;;;;5052785;28;20090;-74
2023/10/11 03:11:46;;;;;;;24.75;13.30;;;333.50;2329.60;;;;;;5053945;28;20025;-74
2023/10/11 03:14:15;;;;;;;20.55;13.30;;;333.50;2329.60;;;;;;5053991;28;20037;-74
2023/10/11 03:16:43;;;;;;;23.70;13.45;;;333.50;2329.60;;;;;;5053963;28;20025;-74
2023/10/11 03:19:12;;;;;;;22.40;13.27;;;333.40;2329.60;;;;;;5054141;28;20025;-75
2023/10/11 03:21:38;;;;;;;17.60;12.23;;;333.30;2329.60;;;;;;5053817;28;20056;-74
2023/10/11 03:24:04;;;;;;;26.23;14.27;;;333.30;2329.60;;;;;;5054048;28;20375;-74
2023/10/11 03:29:03;;;;;;;23.90;15.63;;;333.20;2329.60;;;;;;5053850;28;20028;-75
2023/10/11 03:31:33;;;;;;;22.05;14.32;;;333.10;2329.60;;;;;;5053950;28;20021;-74
2023/10/11 03:34:07;;;;;;;22.63;15.48;;;333.20;2329.60;;;;;;5052376;28;20048;-74
2023/10/11 03:36:43;;;;;;;20.77;13.82;;;333.30;2329.60;;;;;;5053690;28;20017;-74
2023/10/11 03:39:13;;;;;;;22.58;13.70;;;333.40;2329.60;;;;;;5053049;28;20072;-74
2023/10/11 03:41:45;;;;;;;19.83;12.82;;;333.50;2329.60;;;;;;5053690;28;20028;-74
2023/10/11 03:44:17;;;;;;;24.38;14.13;;;333.40;2329.60;;;;;;5053339;28;20076;-74
2023/10/11 03:46:47;;;;;;;18.40;13.38;;;333.40;2329.60;;;;;;5053762;28;20025;-75
2023/10/11 03:51:48;;;;;;;25.02;14.15;;;333.50;2329.60;;;;;;5053433;28;20374;-74
2023/10/11 03:54:23;;;;;;;24.00;15.23;;;333.50;2329.60;;;;;;5052410;28;20041;-75
2023/10/11 03:56:56;;;;;;;21.67;13.68;;;333.50;2329.60;;;;;;5053065;28;20021;-74
2023/10/11 03:59:25;;;;;;;20.50;13.27;;;333.50;2329.60;;;;;;5053300;28;20112;-74
2023/10/11 04:01:59;;;;;;;23.50;14.52;;;333.50;2329.60;;;;;;5051983;28;20021;-74
2023/10/11 04:04:25;;;;;;;20.45;13.25;;;333.60;2329.60;;;;;;5053381;28;20112;-74
2023/10/11 04:06:51;;;;;;;23.10;13.55;;;333.60;2329.60;;;;;;5051870;28;20021;-74
2023/10/11 04:09:37;;;;;;;19.40;13.13;;;333.60;2329.60;;;;;;5051885;28;20108;-74
2023/10/11 04:12:04;;;;;;;18.07;11.90;;;333.50;2329.60;;;;;;5041005;28;20025;-74
2023/10/11 04:14:45;;;;;;;18.92;12.23;;;333.30;2329.60;;;;;;5052743;28;20478;-73
2023/10/11 04:17:38;;;;;;;19.05;12.00;;;333.20;2329.60;;;;;;5052216;28;20052;-74
2023/10/11 04:20:29;;;;;;;20.08;12.35;;;333.20;2329.60;;;;;;5051640;28;20029;-75
2023/10/11 04:23:10;;;;;;;20.33;13.73;;;333.20;2329.60;;;;;;5052742;28;20064;-75
2023/10/11 04:25:38;;;;;;;21.95;12.30;;;333.20;2329.60;;;;;;5053023;28;20067;-74
2023/10/11 04:28:07;;;;;;;21.13;12.35;;;333.30;2329.60;;;;;;5052814;28;20070;-75
2023/10/11 04:30:43;;;;;;;20.90;12.35;;;333.20;2329.60;;;;;;5052994;28;20033;-74
2023/10/11 04:33:13;;;;;;;25.70;14.38;;;333.20;2329.60;;;;;;5052907;28;20033;-74
2023/10/11 04:35:42;;;;;;;24.20;14.00;;;333.10;2329.60;;;;;;5052822;28;20028;-74
2023/10/11 04:38:12;;;;;;;20.88;13.40;;;333.20;2329.60;;;;;;5045740;28;20490;-73
2023/10/11 04:40:42;;;;;;;19.63;13.13;;;333.20;2329.60;;;;;;5052080;28;20017;-74
2023/10/11 04:43:20;;;;;;;19.67;12.68;;;333.20;2329.60;;;;;;5041203;28;20512;-74
2023/10/11 04:45:47;;;;;;;23.00;12.20;;;333.10;2329.60;;;;;;5056182;28;20167;-74
2023/10/11 04:48:29;;;;;;;21.70;12.73;;;333.00;2329.60;;;;;;5047095;28;20466;-74
2023/10/11 04:51:06;;;;;;;20.67;11.90;;;332.90;2329.60;;;;;;5052274;28;20028;-74
2023/10/11 04:53:34;;;;;;;18.42;11.77;;;333.00;2329.60;;;;;;5064190;28;20037;-74
2023/10/11 04:58:54;;;;;;;22.27;11.48;;;333.00;2329.60;;;;;;5051541;28;20098;-74
2023/10/11 05:01:23;;;;;;;20.33;12.32;;;333.00;2329.60;;;;;;5056194;28;20021;-74
2023/10/11 05:03:59;;;;;;;22.40;10.85;;;333.10;2329.60;;;;;;5054748;28;20467;-75
2023/10/11 05:06:31;;;;;;;18.27;11.50;;;333.00;2329.60;;;;;;5058506;28;20028;-74
2023/10/11 05:09:12;;;;;;;18.25;10.07;;;333.00;2329.60;;;;;;5059295;28;20017;-74
2023/10/11 05:11:44;;;;;;;16.42;9.18;;;333.00;2329.60;;;;;;5057581;28;20013;-75
2023/10/11 05:14:26;;;;;;;52.97;13.93;;;333.00;2329.60;;;;;;5049945;28;20044;-77
2023/10/11 05:16:58;;;;;;;17.00;8.73;;;333.00;2329.60;;;;;;5053735;28;20081;-77
2023/10/11 05:19:28;;;;;;;14.90;8.93;;;333.20;2329.60;;;;;;5064188;28;20161;-77
2023/10/11 05:21:55;;;;;;;14.75;9.18;;;333.30;2329.60;;;;;;5059968;28;20044;-76
2023/10/11 05:25:12;;;;;;;16.70;9.48;;;333.20;2329.60;;;;;;5048438;28;20029;-76
2023/10/11 05:52:08;;;;;;;9.65;5.35;;;333.20;2329.60;;;;;;4993799;28;20172;-75
2023/10/11 05:54:36;;;;;;;10.13;5.35;;;333.30;2329.60;;;;;;4993868;28;20128;-76
2023/10/11 05:57:05;;;;;;;9.98;4.72;;;333.30;2329.60;;;;;;4993636;28;20150;-75
2023/10/11 05:59:32;;;;;;;8.25;5.00;;;333.40;2329.60;;;;;;4993613;28;20161;-77
2023/10/11 06:01:59;;;;;;;9.77;4.65;;;333.40;2329.60;;;;;;4983171;28;20022;-75
2023/10/11 06:04:25;;;;;;;10.57;5.10;;;333.50;2329.60;;;;;;4993613;28;20038;-75
2023/10/11 06:06:57;;;;;;;7.70;4.00;;;333.60;2329.60;;;;;;4993286;28;20053;-74
2023/10/11 06:09:27;;;;;;;12.20;5.47;;;333.70;2329.60;;;;;;4993468;28;20026;-75
2023/10/11 06:11:54;;;;;;;9.00;4.55;;;333.70;2329.60;;;;;;4993116;28;20062;-74
2023/10/11 06:14:20;;;;;;;7.53;4.80;;;358.40;2329.60;;;;;;4992693;28;20053;-75
2023/10/11 06:16:56;;;;;;;10.93;4.15;;;358.60;2329.60;;;;;;4984392;28;20578;-75
2023/10/11 06:19:26;;;;;;;9.23;4.32;;;358.80;2329.60;;;;;;4992247;28;20109;-74
2023/10/11 06:21:57;;;;;;;11.23;4.40;;;358.80;2329.60;;;;;;4993171;28;20030;-73
2023/10/11 06:24:30;;;;;;;8.45;4.32;;;358.90;2329.60;;;;;;4975312;28;20045;-73
2023/10/11 06:27:11;;;;;;;10.60;4.30;;;359.00;2329.60;;;;;;5041159;28;20037;-73
2023/10/11 06:29:53;;;;;;;6.65;3.42;;;359.30;2329.60;;;;;;5047984;28;20036;-74
2023/10/11 06:32:19;;;;;;;8.57;3.72;;;384.10;2329.60;;;;;;5050958;28;20108;-74
2023/10/11 06:34:47;;;;;;;8.18;3.55;;;384.30;2329.60;;;;;;5057064;28;20032;-74
2023/10/11 06:37:17;;;;;;;7.35;3.20;;;384.40;2329.60;;;;;;5047962;28;20021;-73
2023/10/11 06:42:13;;;;;;;18.10;4.38;;;384.60;2329.60;;;;;;5050362;28;20037;-74
2023/10/11 06:44:45;;;;;;;11.15;3.05;;;384.90;2329.60;;;;;;5054976;28;20036;-74
2023/10/11 06:47:13;;;;;;;7.53;3.33;;;384.90;2329.60;;;;;;5052662;28;20538;-74
2023/10/11 06:49:44;;;;;;;9.80;3.55;;;409.60;2355.20;;;;;;5055862;28;20470;-73
2023/10/11 06:52:25;;;;;;;8.82;2.60;;;409.90;2355.20;;;;;;5044745;28;20036;-74
2023/10/11 06:55:07;;;;;;;6.60;3.10;;;410.20;2355.20;;;;;;5042449;28;20033;-74
2023/10/11 06:57:39;;;;;;;6.38;3.75;;;410.30;2355.20;;;;;;5045615;28;20487;-77
2023/10/11 07:00:29;;;;;;;14.63;3.47;;;435.50;2355.20;;;;;;5051508;28;20029;-77
2023/10/11 07:03:06;;;;;;;12.68;2.95;;;410.50;2355.20;;;;;;5056696;28;20028;-78
2023/10/11 07:05:45;;;;;;;8.43;4.25;;;435.20;2355.20;;;;;;5055990;28;20021;-77
2023/10/11 07:08:18;;;;;;;7.38;2.92;;;435.50;2355.20;;;;;;5051718;28;20025;-77
2023/10/11 07:16:12;;;;;;;8.80;2.53;;;435.80;2355.20;;;;;;5056711;28;20036;-76
2023/10/11 07:18:43;;;;;;;9.73;2.97;;;435.90;2355.20;;;;;;5047984;28;20032;-78
2023/10/11 07:21:09;;;;;;;9.43;2.70;;;436.10;2355.20;;;;;;5051941;28;20095;-77
2023/10/11 07:24:19;;;;;;;10.60;2.90;;;460.90;2380.80;;;;;;5053773;28;20029;-76
2023/10/11 07:29:02;;;;;;;6.75;2.90;;;461.10;2380.80;;;;;;5051457;28;20483;-76
2023/10/11 07:31:38;;;;;;;9.35;2.83;;;461.00;2380.80;;;;;;5065158;28;20024;-74
2023/10/11 07:34:10;;;;;;;11.48;3.00;;;460.90;2380.80;;;;;;5052440;28;20037;-74
2023/10/11 07:36:38;;;;;;;14.85;3.92;;;461.10;2380.80;;;;;;5053191;28;20025;-75
2023/10/11 07:41:49;;;;;;;7.25;3.38;;;461.20;2380.80;;;;;;5061153;28;20025;-74
2023/10/11 07:44:19;;;;;;;8.07;3.40;;;461.50;2380.80;;;;;;5054532;28;20136;-75
2023/10/11 07:46:54;;;;;;;7.32;2.85;;;461.70;2380.80;;;;;;5046950;28;20044;-73
2023/10/11 07:49:23;;;;;;;13.90;3.40;;;486.40;2380.80;;;;;;5072504;28;20466;-74
2023/10/11 07:51:58;;;;;;;7.30;2.80;;;461.70;2380.80;;;;;;5040097;28;20022;-74
2023/10/11 07:54:25;;;;;;;8.73;3.20;;;486.40;2380.80;;;;;;5051227;28;20509;-74
2023/10/11 07:56:56;;;;;;;9.02;3.35;;;486.40;2380.80;;;;;;5049385;28;20029;-74
2023/10/11 07:59:26;;;;;;;12.25;3.42;;;486.70;2380.80;;;;;;5050566;28;20431;-74
2023/10/11 08:01:56;;;;;;;9.13;2.67;;;486.60;2380.80;;;;;;5063344;28;20044;-75
2023/10/11 08:04:27;;;;;;;6.43;3.55;;;486.80;2380.80;;;;;;5051742;28;20048;-75
2023/10/11 08:06:59;;;;;;;7.43;3.25;;;486.90;2380.80;;;;;;5063272;28;20501;-75
2023/10/11 08:09:46;;;;;;;7.22;4.57;;;486.90;2380.80;;;;;;5048110;28;20056;-73
2023/10/11 08:12:18;;;;;;;11.93;3.00;;;487.00;2380.80;;;;;;5053026;28;20024;-74
2023/10/11 08:14:47;;;;;;;5.82;3.08;;;487.10;2380.80;;;;;;5046737;28;20033;-74
2023/10/11 08:17:14;;;;;;;6.20;2.88;;;487.30;2380.80;;;;;;5057198;28;20181;-74
2023/10/11 08:19:44;;;;;;;6.68;2.75;;;512.20;2380.80;;;;;;5051419;28;20100;-75
2023/10/11 08:22:19;;;;;;;8.40;3.72;;;512.20;2380.80;;;;;;5054225;28;20055;-73
2023/10/11 08:24:48;;;;;;;10.57;3.80;;;512.40;2380.80;;;;;;5059612;28;20050;-74
2023/10/11 08:27:36;;;;;;;10.00;3.58;;;512.50;2380.80;;;;;;5045276;28;20025;-74
2023/10/11 08:30:23;;;;;;;16.73;5.28;;;512.60;2380.80;;;;;;5047819;28;20074;-74
2023/10/11 08:32:48;;;;;;;9.75;4.22;;;512.90;2380.80;;;;;;5048193;28;20029;-75
2023/10/11 08:35:26;;;;;;;14.57;5.65;;;537.70;2406.40;;;;;;5050336;28;20448;-74
2023/10/11 08:37:53;;;;;;;11.88;5.28;;;537.90;2406.40;;;;;;5040725;28;20032;-74
2023/10/11 08:40:20;;;;;;;10.30;4.72;;;537.90;2406.40;;;;;;5044103;28;20104;-74
2023/10/11 08:42:52;;;;;;;7.43;5.22;;;537.80;2406.40;;;;;;5038108;28;20080;-74
2023/10/11 08:45:28;;;;;;;7.78;4.13;;;538.10;2406.40;;;;;;5049023;28;20411;-74
2023/10/11 08:47:54;;;;;;;7.55;3.58;;;537.90;2406.40;;;;;;5062007;28;20143;-74
2023/10/11 08:50:20;;;;;;;12.13;4.10;;;537.80;2406.40;;;;;;5049862;28;20065;-75
2023/10/11 08:52:46;;;;;;;12.48;3.88;;;538.00;2406.40;;;;;;5050858;28;20103;-74
2023/10/11 08:55:19;;;;;;;10.75;4.93;;;538.00;2406.40;;;;;;5043335;28;20100;-74
2023/10/11 08:57:47;;;;;;;8.32;3.25;;;538.30;2406.40;;;;;;5047542;28;20108;-74
2023/10/11 09:00:28;;;;;;;9.00;3.67;;;538.40;2380.80;;;;;;5047110;28;20025;-74
2023/10/11 09:03:13;;;;;;;8.90;3.55;;;538.50;2355.20;;;;;;5036381;28;20053;-74
2023/10/11 09:05:43;;;;;;;6.63;3.47;;;;;;;;;;5055580;28;20078;-74
2023/10/11 09:08:31;;;;;;;16.52;4.88;;;563.60;2304.00;;;;;;5044223;28;20115;-75
2023/10/11 09:11:28;;;;;;;8.85;3.72;;;563.60;2432.00;;;;;;5041554;28;20101;-74
2023/10/11 09:14:22;;;;;;;12.48;4.53;;;563.60;2329.60;;;;;;5060764;28;20043;-75
2023/10/11 09:16:48;;;;;;;6.97;2.95;;;564.00;2252.80;;;;;;5044177;28;20067;-75
2023/10/11 09:19:19;;;;;;;8.90;3.38;;;588.90;2150.40;;;;;;5048222;28;20025;-74
2023/10/11 09:22:01;;;;;;;8.82;3.92;;;;;;;;;;5050002;28;20017;-74
2023/10/11 09:24:37;;;;;;;6.90;3.60;;;589.70;2022.40;;;;;;5041319;28;20022;-74
2023/10/11 09:27:18;;;;;;;7.10;3.30;;;614.40;2022.40;;;;;;5044844;28;20025;-74
2023/10/11 09:29:47;;;;;;;13.13;3.75;;;614.50;2022.40;;;;;;5044127;28;20072;-74
2023/10/11 09:32:19;;;;;;;8.75;3.63;;;614.60;2022.40;;;;;;5060954;28;20113;-74
2023/10/11 09:34:47;;;;;;;17.15;4.40;;;614.40;1971.20;;;;;;5038815;28;20037;-74
2023/10/11 09:37:13;;;;;;;9.43;3.85;;;589.70;1971.20;;;;;;5057912;28;20020;-74
2023/10/11 09:39:42;;;;;;;12.68;4.18;;;614.80;1945.60;;;;;;5047917;28;20018;-74
2023/10/11 09:42:11;;;;;;;8.77;4.07;;;;;;;;;;5050859;28;20074;-75
2023/10/11 09:44:39;;;;;;;12.77;4.63;;;;;;;;;;5053507;28;20072;-74
2023/10/11 09:47:06;;;;;;;8.07;3.58;;;;;;;;;;5057330;28;20032;-75
2023/10/11 09:49:41;;;;;;;10.18;3.33;;;615.00;1843.20;;;;;;5048059;28;20021;-74
2023/10/11 09:52:16;;;;;;;5.40;2.47;;;640.00;1843.20;;;;;;5049808;28;20438;-74
2023/10/11 09:54:43;;;;;;;5.80;2.95;;;640.00;1843.20;;;;;;5053430;28;20123;-74
2023/10/11 09:57:22;;;;;;;11.07;3.40;;;640.30;1817.60;;;;;;5046244;28;20030;-74
2023/10/11 10:00:03;;;;;;;7.57;2.47;;;;;;;;;;5038567;28;20495;-74
2023/10/11 10:02:36;;;;;;;12.80;3.78;;;640.60;1817.60;;;;;;5052336;28;20024;-74
2023/10/11 10:05:05;;;;;;;8.68;3.28;;;640.40;1817.60;;;;;;5056875;28;20101;-74
2023/10/11 10:07:42;;;;;;;6.10;2.40;;;640.50;1792.00;;;;;;5060729;28;20056;-74
2023/10/11 10:10:12;;;;;;;6.05;2.90;;;640.50;1792.00;;;;;;5048517;28;20033;-73
2023/10/11 10:12:56;;;;;;;6.55;2.95;;;665.70;1740.80;;;;;;5042028;28;20108;-74
2023/10/11 10:15:23;;;;;;;6.13;2.92;;;665.70;1740.80;;;;;;5060037;28;20083;-74
2023/10/11 10:18:00;;;;;;;6.35;2.75;;;665.70;1792.00;;;;;;5047341;28;20021;-74
2023/10/11 10:20:34;;;;;;;8.27;2.88;;;640.90;1715.20;;;;;;5044079;28;20021;-74
2023/10/11 10:23:15;;;;;;;8.00;2.72;;;665.70;1766.40;;;;;;5048101;28;20025;-75
2023/10/11 10:25:46;;;;;;;10.52;2.78;;;665.90;1740.80;;;;;;5052471;28;20029;-73
2023/10/11 10:28:34;;;;;;;8.38;2.65;;;665.70;1740.80;;;;;;5051358;28;20033;-74
2023/10/11 10:31:09;;;;;;;8.18;3.00;;;665.60;1766.40;;;;;;5058298;28;20044;-74
2023/10/11 10:33:36;;;;;;;4.17;2.50;;;666.00;1715.20;;;;;;5046864;28;20091;-74
2023/10/11 10:36:20;;;;;;;9.85;2.67;;;665.80;1715.20;;;;;;5057463;28;20029;-74
2023/10/11 10:39:00;;;;;;;2.95;2.10;;;665.90;1740.80;;;;;;5052855;28;20021;-73
2023/10/11 10:41:31;;;;;;;4.93;2.30;;;665.70;1740.80;;;;;;5047031;28;20025;-74
2023/10/11 10:44:05;;;;;;;5.60;2.80;;;666.00;1689.60;;;;;;5059526;28;20049;-74
2023/10/11 10:46:34;;;;;;;7.22;2.80;;;665.80;1715.20;;;;;;5050002;28;20037;-74
2023/10/11 10:49:03;;;;;;;8.18;2.38;;;666.30;1664.00;;;;;;5044348;28;20044;-74
2023/10/11 10:51:35;;;;;;;9.35;3.00;;;691.20;1664.00;;;;;;5041821;28;20030;-74
2023/10/11 10:54:12;;;;;;;7.88;2.67;;;666.20;1612.80;;;;;;5057474;28;20556;-75
2023/10/11 10:56:40;;;;;;;9.23;2.70;;;691.20;1587.20;;;;;;5046230;28;20017;-75
2023/10/11 10:59:08;;;;;;;7.78;2.53;;;691.20;1612.80;;;;;;5037894;28;20051;-74
2023/10/11 11:01:34;;;;;;;12.07;3.17;;;691.20;1612.80;;;;;;5051204;28;20052;-74
2023/10/11 11:04:07;;;;;;;8.85;2.60;;;666.50;1612.80;;;;;;5060846;28;20029;-74
2023/10/11 11:06:47;;;;;;;7.90;2.22;;;666.30;1638.40;;;;;;5047319;28;20043;-74
2023/10/11 11:09:27;;;;;;;7.63;2.78;;;666.00;1638.40;;;;;;5077414;28;20036;-74
2023/10/11 11:11:57;;;;;;;5.32;2.47;;;665.60;1664.00;;;;;;5048005;28;20021;-75
2023/10/11 11:14:24;;;;;;;4.75;2.35;;;665.60;1689.60;;;;;;5058942;28;20044;-74
2023/10/11 11:16:57;;;;;;;5.45;2.80;;;665.90;1664.00;;;;;;5049831;28;20047;-73
2023/10/11 11:19:26;;;;;;;6.38;2.30;;;640.90;1638.40;;;;;;5051168;28;20082;-74
2023/10/11 11:22:11;;;;;;;8.90;2.33;;;665.80;1638.40;;;;;;5054273;28;20020;-74
2023/10/11 11:24:41;;;;;;;5.43;2.80;;;665.60;1638.40;;;;;;5045483;28;20405;-74
2023/10/11 11:27:17;;;;;;;8.93;2.70;;;640.90;1664.00;;;;;;5049937;28;20025;-73
2023/10/11 11:29:43;;;;;;;7.30;2.38;;;665.70;1638.40;;;;;;5054812;28;20028;-74
2023/10/11 11:32:17;;;;;;;5.43;2.38;;;665.70;1664.00;;;;;;5066251;28;20027;-74
2023/10/11 11:35:09;;;;;;;9.27;2.67;;;666.00;1638.40;;;;;;5058666;28;20528;-74
2023/10/11 11:37:39;;;;;;;8.88;2.40;;;666.50;1587.20;;;;;;5051569;28;20036;-74
2023/10/11 11:40:21;;;;;;;8.73;2.10;;;691.40;1561.60;;;;;;5055983;28;20016;-74
2023/10/11 11:42:50;;;;;;;8.68;2.63;;;666.50;1612.80;;;;;;5043335;28;20494;-75
2023/10/11 11:45:16;;;;;;;3.92;2.00;;;691.30;1612.80;;;;;;5049639;28;20036;-74
2023/10/11 11:47:58;;;;;;;7.80;2.33;;;691.30;1612.80;;;;;;5057018;28;20037;-74
2023/10/11 11:50:33;;;;;;;6.55;2.55;;;666.50;1612.80;;;;;;5049078;28;20032;-73
2023/10/11 11:53:05;;;;;;;9.63;2.20;;;666.30;1612.80;;;;;;5051954;28;20079;-74
2023/10/11 11:55:34;;;;;;;4.35;2.20;;;665.90;1587.20;;;;;;5049682;28;20033;-74
2023/10/11 11:58:00;;;;;;;6.20;2.80;;;666.00;1612.80;;;;;;5067267;28;20017;-74
2023/10/11 12:02:53;;;;;;;5.55;2.80;;;640.70;1612.80;;;;;;5058296;28;20167;-75
2023/10/11 12:05:19;;;;;;;5.47;2.90;;;640.50;1638.40;;;;;;5055792;28;20021;-74
2023/10/11 12:07:46;;;;;;;7.63;2.33;;;640.50;1638.40;;;;;;5057487;28;20466;-74
2023/10/11 12:10:23;;;;;;;5.80;2.40;;;640.60;1638.40;;;;;;5046250;28;20029;-75
2023/10/11 12:12:53;;;;;;;9.73;2.53;;;640.40;1689.60;;;;;;5065948;28;20107;-74
2023/10/11 12:15:19;;;;;;;5.60;2.03;;;640.90;1638.40;;;;;;5053149;28;20045;-75
2023/10/11 12:17:47;;;;;;;6.63;2.58;;;665.60;1664.00;;;;;;5052283;28;20025;-75
2023/10/11 12:20:14;;;;;;;8.98;3.03;;;640.90;1612.80;;;;;;5042003;28;20030;-75
2023/10/11 12:22:42;;;;;;;7.32;2.28;;;665.60;1664.00;;;;;;5052195;28;20020;-75
2023/10/11 12:25:12;;;;;;;7.35;2.30;;;640.60;1638.40;;;;;;5041708;28;20403;-75
2023/10/11 12:27:40;;;;;;;12.15;2.47;;;640.70;1612.80;;;;;;5044130;28;20111;-74
2023/10/11 12:30:19;;;;;;;3.20;2.00;;;640.60;1638.40;;;;;;5040908;28;20033;-74
2023/10/11 12:32:49;;;;;;;8.48;2.38;;;640.90;1612.80;;;;;;5044518;28;20051;-74
2023/10/11 12:35:15;;;;;;;8.32;2.80;;;640.90;1612.80;;;;;;5049980;28;20520;-74
2023/10/11 12:37:41;;;;;;;9.57;2.72;;;640.60;1612.80;;;;;;5055557;28;20172;-75
2023/10/11 12:40:13;;;;;;;8.68;2.38;;;640.40;1638.40;;;;;;5043328;28;20033;-74
2023/10/11 12:42:39;;;;;;;5.97;2.88;;;640.40;1638.40;;;;;;5042427;28;20021;-75
2023/10/11 12:45:08;;;;;;;8.90;3.85;;;640.80;1638.40;;;;;;5056881;28;20038;-74
2023/10/11 12:47:36;;;;;;;12.23;3.50;;;665.60;1664.00;;;;;;5054052;28;20025;-74
2023/10/11 12:50:03;;;;;;;15.25;3.95;;;665.60;1638.40;;;;;;5048937;28;20108;-75
2023/10/11 12:52:32;;;;;;;8.02;3.10;;;665.60;1638.40;;;;;;5053407;28;20025;-74
2023/10/11 12:55:00;;;;;;;6.72;2.70;;;640.80;1612.80;;;;;;5046770;28;20043;-74
2023/10/11 12:57:27;;;;;;;8.40;3.72;;;665.60;1638.40;;;;;;5050798;28;20025;-74
2023/10/11 12:59:53;;;;;;;12.75;3.13;;;665.70;1612.80;;;;;;5046352;28;20475;-74
2023/10/11 13:02:22;;;;;;;8.98;2.70;;;665.90;1587.20;;;;;;5055574;28;20021;-75
2023/10/11 13:04:49;;;;;;;4.70;2.33;;;665.70;1587.20;;;;;;5052427;28;20104;-75
2023/10/11 13:07:15;;;;;;;7.47;2.00;;;665.80;1612.80;;;;;;5058631;28;20135;-74
2023/10/11 13:09:41;;;;;;;3.92;1.85;;;665.90;1561.60;;;;;;5046790;28;20112;-73
2023/10/11 13:12:08;;;;;;;5.70;2.40;;;665.80;1587.20;;;;;;5054993;28;20052;-74
2023/10/11 13:14:35;;;;;;;8.38;1.92;;;665.80;1587.20;;;;;;5059072;28;20408;-74
2023/10/11 13:17:06;;;;;;;9.15;2.28;;;665.60;1612.80;;;;;;5055996;28;20043;-74
2023/10/11 13:19:32;;;;;;;6.30;2.72;;;640.90;1561.60;;;;;;5048673;28;20032;-74
2023/10/11 13:21:58;;;;;;;4.25;1.63;;;665.60;1612.80;;;;;;5047330;28;20025;-74
2023/10/11 13:24:26;;;;;;;5.10;2.15;;;640.80;1587.20;;;;;;5054139;28;20040;-74